KSPS

Sheppard AFB / Wichita Falls Municipal Airport

Wichita Falls, Texas, USA
KSPS 181126Z 1812/1912 02007KT 6SM -RA OVC060 TEMPO 1814/1816 5SM -RA OVC025 FM182000 05007KT P6SM OVC050 FM190200 05007KT 6SM -RA OVC025
Issued Valid From Valid To
Oct-18 @ 11:26 UTC
(26 minutes ago)
Oct-18 @ 12:00 UTC
(in 8 minutes)
Oct-19 @ 12:00 UTC
(in 24 hours)
Oct-18 @ 12:00 to Oct-18 @ 20:00
KSPS 181126Z 1812/1912 02007KT 6SM -RA OVC060
Wind Visibility Clouds Conditions
20° at 7 knots 6 miles
  • Overcast at 6,000' AGL
  • Light Rain
Temporary Oct-18 @ 14:00 to Oct-18 @ 16:00
TEMPO 1814/1816 5SM -RA OVC025
Visibility Clouds Conditions
5 miles
  • Overcast at 2,500' AGL
  • Light Rain
From Oct-18 @ 20:00 to Oct-19 @ 02:00
FM182000 05007KT P6SM OVC050
Wind Visibility Clouds
50° at 7 knots Greater than 6 miles
  • Overcast at 5,000' AGL
From Oct-19 @ 02:00 to Oct-19 @ 12:00
FM190200 05007KT 6SM -RA OVC025
Wind Visibility Clouds Conditions
50° at 7 knots 6 miles
  • Overcast at 2,500' AGL
  • Light Rain
KSPS 181126Z 1812/1912 02007KT 6SM -RA OVC060 TEMPO 1814/1816 5SM -RA OVC025 FM182000 05007KT P6SM OVC050 FM190200 05007KT 6SM -RA OVC025
Issued Oct-18 @ 11:26 UTC
(26 minutes ago)
Valid From Oct-18 @ 12:00 UTC
(in 8 minutes)
Valid To Oct-19 @ 12:00 UTC
(in 24 hours)
Oct-18 @ 12:00 - Oct-18 @ 20:00
Wind Visibility
20° at 7 knots 6 miles
Clouds
  • Overcast at 6,000' AGL
Conditions
  • Light Rain
Temporary Oct-18 @ 14:00 - Oct-18 @ 16:00
Clouds
  • Overcast at 2,500' AGL
Conditions
  • Light Rain
From Oct-18 @ 20:00 - Oct-19 @ 02:00
Wind Visibility
50° at 7 knots Greater than 6 miles
Clouds
  • Overcast at 5,000' AGL
From Oct-19 @ 02:00 - Oct-19 @ 12:00
Wind Visibility
50° at 7 knots 6 miles
Clouds
  • Overcast at 2,500' AGL
Conditions
  • Light Rain